sensor_id;sensor_type;location;lat;lon;timestamp;P1;durP1;ratioP1;P2;durP2;ratioP2
25649;SDS011;13505;45.196;5.696;2022-11-06T05:00:27;14.05;;;6.88;;
25649;SDS011;13505;45.196;5.696;2022-11-06T05:05:17;10.85;;;6.80;;
25649;SDS011;13505;45.196;5.696;2022-11-06T05:10:08;17.48;;;7.78;;
25649;SDS011;13505;45.196;5.696;2022-11-06T05:14:58;12.88;;;7.22;;
25649;SDS011;13505;45.196;5.696;2022-11-06T05:19:48;11.00;;;6.95;;
25649;SDS011;13505;45.196;5.696;2022-11-06T05:24:39;10.48;;;6.10;;
25649;SDS011;13505;45.196;5.696;2022-11-06T05:29:29;11.18;;;6.60;;
25649;SDS011;13505;45.196;5.696;2022-11-06T05:34:19;11.10;;;6.90;;
25649;SDS011;13505;45.196;5.696;2022-11-06T05:39:10;9.68;;;6.35;;
25649;SDS011;13505;45.196;5.696;2022-11-06T05:44:00;12.80;;;6.70;;
25649;SDS011;13505;45.196;5.696;2022-11-06T05:48:51;11.20;;;6.57;;
25649;SDS011;13505;45.196;5.696;2022-11-06T05:53:41;11.15;;;6.82;;
25649;SDS011;13505;45.196;5.696;2022-11-06T05:58:31;14.70;;;7.22;;
25649;SDS011;13505;45.196;5.696;2022-11-06T06:03:22;11.27;;;6.40;;
25649;SDS011;13505;45.196;5.696;2022-11-06T06:08:13;12.23;;;6.72;;
25649;SDS011;13505;45.196;5.696;2022-11-06T06:13:03;11.60;;;7.10;;
25649;SDS011;13505;45.196;5.696;2022-11-06T06:17:54;9.85;;;6.25;;
25649;SDS011;13505;45.196;5.696;2022-11-06T06:22:56;12.95;;;6.30;;
25649;SDS011;13505;45.196;5.696;2022-11-06T06:27:47;10.57;;;5.80;;
25649;SDS011;13505;45.196;5.696;2022-11-06T06:32:37;10.32;;;5.85;;
25649;SDS011;13505;45.196;5.696;2022-11-06T06:37:28;10.65;;;5.57;;
25649;SDS011;13505;45.196;5.696;2022-11-06T06:42:18;11.70;;;6.33;;
25649;SDS011;13505;45.196;5.696;2022-11-06T06:47:08;10.18;;;5.97;;
25649;SDS011;13505;45.196;5.696;2022-11-06T06:51:59;8.85;;;5.35;;
25649;SDS011;13505;45.196;5.696;2022-11-06T06:56:49;10.18;;;5.38;;
25649;SDS011;13505;45.196;5.696;2022-11-06T07:01:40;10.55;;;5.50;;
25649;SDS011;13505;45.196;5.696;2022-11-06T07:06:30;11.13;;;6.07;;
25649;SDS011;13505;45.196;5.696;2022-11-06T07:11:21;11.68;;;6.80;;
25649;SDS011;13505;45.196;5.696;2022-11-06T07:16:11;10.73;;;6.50;;
25649;SDS011;13505;45.196;5.696;2022-11-06T07:21:08;13.23;;;6.70;;
25649;SDS011;13505;45.196;5.696;2022-11-06T07:26:01;14.18;;;6.82;;
25649;SDS011;13505;45.196;5.696;2022-11-06T07:30:56;12.63;;;7.30;;
25649;SDS011;13505;45.196;5.696;2022-11-06T07:35:48;13.50;;;7.22;;
25649;SDS011;13505;45.196;5.696;2022-11-06T07:40:38;12.02;;;5.93;;
25649;SDS011;13505;45.196;5.696;2022-11-06T07:45:29;11.13;;;7.30;;
25649;SDS011;13505;45.196;5.696;2022-11-06T07:50:19;10.77;;;7.10;;
25649;SDS011;13505;45.196;5.696;2022-11-06T07:55:09;12.68;;;6.95;;
25649;SDS011;13505;45.196;5.696;2022-11-06T08:00:00;8.50;;;5.70;;
25649;SDS011;13505;45.196;5.696;2022-11-06T08:04:50;8.30;;;5.50;;
25649;SDS011;13505;45.196;5.696;2022-11-06T08:09:40;10.07;;;5.80;;
25649;SDS011;13505;45.196;5.696;2022-11-06T08:14:31;8.77;;;5.30;;
25649;SDS011;13505;45.196;5.696;2022-11-06T08:19:21;10.80;;;4.97;;
25649;SDS011;13505;45.196;5.696;2022-11-06T08:24:11;8.13;;;5.00;;
25649;SDS011;13505;45.196;5.696;2022-11-06T08:29:02;6.80;;;4.40;;
25649;SDS011;13505;45.196;5.696;2022-11-06T08:33:52;7.22;;;4.85;;
25649;SDS011;13505;45.196;5.696;2022-11-06T08:38:42;8.00;;;4.50;;
25649;SDS011;13505;45.196;5.696;2022-11-06T08:43:36;8.32;;;5.47;;
25649;SDS011;13505;45.196;5.696;2022-11-06T08:48:27;8.48;;;4.95;;
25649;SDS011;13505;45.196;5.696;2022-11-06T08:53:17;7.13;;;4.28;;
25649;SDS011;13505;45.196;5.696;2022-11-06T08:58:08;6.40;;;3.83;;
25649;SDS011;13505;45.196;5.696;2022-11-06T09:02:59;8.07;;;4.28;;
25649;SDS011;13505;45.196;5.696;2022-11-06T09:07:50;10.40;;;5.28;;
25649;SDS011;13505;45.196;5.696;2022-11-06T09:12:41;13.90;;;4.70;;
25649;SDS011;13505;45.196;5.696;2022-11-06T09:17:31;10.17;;;4.30;;
25649;SDS011;13505;45.196;5.696;2022-11-06T09:22:21;7.75;;;5.20;;
25649;SDS011;13505;45.196;5.696;2022-11-06T09:27:12;4.40;;;3.15;;
25649;SDS011;13505;45.196;5.696;2022-11-06T09:32:02;4.32;;;3.35;;
25649;SDS011;13505;45.196;5.696;2022-11-06T09:36:52;5.38;;;3.05;;
25649;SDS011;13505;45.196;5.696;2022-11-06T09:41:47;4.38;;;3.00;;
25649;SDS011;13505;45.196;5.696;2022-11-06T09:46:43;4.53;;;3.20;;
25649;SDS011;13505;45.196;5.696;2022-11-06T09:51:39;3.95;;;2.60;;
25649;SDS011;13505;45.196;5.696;2022-11-06T09:56:37;5.55;;;3.10;;
25649;SDS011;13505;45.196;5.696;2022-11-06T10:01:34;4.45;;;3.10;;
25649;SDS011;13505;45.196;5.696;2022-11-06T10:06:31;5.13;;;3.05;;
25649;SDS011;13505;45.196;5.696;2022-11-06T10:11:26;6.07;;;3.40;;
25649;SDS011;13505;45.196;5.696;2022-11-06T10:21:20;5.45;;;3.08;;
25649;SDS011;13505;45.196;5.696;2022-11-06T10:26:34;4.10;;;2.40;;
25649;SDS011;13505;45.196;5.696;2022-11-06T10:31:42;3.53;;;2.80;;
25649;SDS011;13505;45.196;5.696;2022-11-06T10:36:52;3.40;;;2.67;;
25649;SDS011;13505;45.196;5.696;2022-11-06T10:41:48;3.88;;;2.50;;
25649;SDS011;13505;45.196;5.696;2022-11-06T10:46:45;5.55;;;2.80;;
25649;SDS011;13505;45.196;5.696;2022-11-06T10:57:18;3.17;;;2.47;;
25649;SDS011;13505;45.196;5.696;2022-11-06T11:02:07;4.60;;;2.55;;
25649;SDS011;13505;45.196;5.696;2022-11-06T11:07:28;3.85;;;2.47;;
25649;SDS011;13505;45.196;5.696;2022-11-06T11:12:24;3.30;;;2.30;;
25649;SDS011;13505;45.196;5.696;2022-11-06T11:17:18;5.78;;;2.90;;
25649;SDS011;13505;45.196;5.696;2022-11-06T11:27:05;3.72;;;2.58;;
25649;SDS011;13505;45.196;5.696;2022-11-06T11:31:57;5.45;;;2.90;;
25649;SDS011;13505;45.196;5.696;2022-11-06T11:36:54;4.03;;;2.88;;
25649;SDS011;13505;45.196;5.696;2022-11-06T11:42:14;4.55;;;2.70;;
25649;SDS011;13505;45.196;5.696;2022-11-06T11:47:20;4.72;;;2.58;;
25649;SDS011;13505;45.196;5.696;2022-11-06T11:52:12;3.13;;;2.38;;
25649;SDS011;13505;45.196;5.696;2022-11-06T11:57:10;2.90;;;2.60;;
25649;SDS011;13505;45.196;5.696;2022-11-06T12:02:17;3.47;;;2.30;;
25649;SDS011;13505;45.196;5.696;2022-11-06T12:07:27;3.10;;;2.53;;
25649;SDS011;13505;45.196;5.696;2022-11-06T12:12:25;3.37;;;2.23;;
25649;SDS011;13505;45.196;5.696;2022-11-06T12:17:20;4.00;;;2.67;;
25649;SDS011;13505;45.196;5.696;2022-11-06T12:22:17;5.63;;;2.97;;
25649;SDS011;13505;45.196;5.696;2022-11-06T12:27:18;4.03;;;2.50;;
25649;SDS011;13505;45.196;5.696;2022-11-06T12:32:22;3.55;;;2.40;;
25649;SDS011;13505;45.196;5.696;2022-11-06T12:42:27;4.35;;;2.47;;
25649;SDS011;13505;45.196;5.696;2022-11-06T12:52:40;3.60;;;2.45;;
25649;SDS011;13505;45.196;5.696;2022-11-06T13:18:31;4.45;;;2.45;;
25649;SDS011;13505;45.196;5.696;2022-11-06T13:23:27;2.55;;;2.00;;
25649;SDS011;13505;45.196;5.696;2022-11-06T13:28:25;4.78;;;2.17;;
25649;SDS011;13505;45.196;5.696;2022-11-06T13:33:31;3.00;;;2.15;;
25649;SDS011;13505;45.196;5.696;2022-11-06T13:38:33;3.58;;;1.90;;
25649;SDS011;13505;45.196;5.696;2022-11-06T13:43:32;2.25;;;1.80;;
25649;SDS011;13505;45.196;5.696;2022-11-06T14:09:05;2.72;;;1.73;;
25649;SDS011;13505;45.196;5.696;2022-11-06T14:14:03;2.53;;;1.77;;
25649;SDS011;13505;45.196;5.696;2022-11-06T14:24:32;3.80;;;1.88;;
25649;SDS011;13505;45.196;5.696;2022-11-06T14:34:29;4.63;;;2.20;;
25649;SDS011;13505;45.196;5.696;2022-11-06T14:40:01;5.35;;;2.00;;
25649;SDS011;13505;45.196;5.696;2022-11-06T14:49:58;4.70;;;2.30;;
25649;SDS011;13505;45.196;5.696;2022-11-06T14:54:57;4.40;;;2.13;;
25649;SDS011;13505;45.196;5.696;2022-11-06T14:59:50;4.03;;;2.45;;
25649;SDS011;13505;45.196;5.696;2022-11-06T15:04:54;2.15;;;1.67;;
25649;SDS011;13505;45.196;5.696;2022-11-06T15:09:49;6.93;;;1.98;;
25649;SDS011;13505;45.196;5.696;2022-11-06T15:19:30;4.22;;;2.45;;
25649;SDS011;13505;45.196;5.696;2022-11-06T15:29:23;6.03;;;2.10;;
25649;SDS011;13505;45.196;5.696;2022-11-06T15:34:19;5.93;;;2.63;;
25649;SDS011;13505;45.196;5.696;2022-11-06T15:44:23;6.25;;;2.70;;
25649;SDS011;13505;45.196;5.696;2022-11-06T15:49:15;7.60;;;3.17;;
25649;SDS011;13505;45.196;5.696;2022-11-06T15:54:11;5.60;;;2.92;;
25649;SDS011;13505;45.196;5.696;2022-11-06T15:59:06;10.20;;;3.35;;
25649;SDS011;13505;45.196;5.696;2022-11-06T16:04:03;8.40;;;3.17;;
25649;SDS011;13505;45.196;5.696;2022-11-06T16:08:56;8.35;;;4.05;;
25649;SDS011;13505;45.196;5.696;2022-11-06T16:13:48;186.70;;;14.10;;
25649;SDS011;13505;45.196;5.696;2022-11-06T16:23:37;22.88;;;5.47;;
25649;SDS011;13505;45.196;5.696;2022-11-06T16:28:31;24.77;;;7.43;;
25649;SDS011;13505;45.196;5.696;2022-11-06T16:33:25;17.85;;;8.40;;
25649;SDS011;13505;45.196;5.696;2022-11-06T16:43:09;16.42;;;7.50;;
25649;SDS011;13505;45.196;5.696;2022-11-06T16:52:56;21.17;;;8.77;;
25649;SDS011;13505;45.196;5.696;2022-11-06T16:57:49;16.47;;;7.77;;
25649;SDS011;13505;45.196;5.696;2022-11-06T17:02:44;18.88;;;8.85;;
25649;SDS011;13505;45.196;5.696;2022-11-06T17:07:37;14.45;;;7.63;;
25649;SDS011;13505;45.196;5.696;2022-11-06T17:12:29;11.32;;;6.50;;
25649;SDS011;13505;45.196;5.696;2022-11-06T17:17:23;12.73;;;6.53;;
25649;SDS011;13505;45.196;5.696;2022-11-06T17:22:14;10.68;;;5.85;;
25649;SDS011;13505;45.196;5.696;2022-11-06T17:27:05;13.48;;;5.90;;
25649;SDS011;13505;45.196;5.696;2022-11-06T17:31:55;10.50;;;6.20;;
25649;SDS011;13505;45.196;5.696;2022-11-06T17:36:46;11.15;;;5.72;;
25649;SDS011;13505;45.196;5.696;2022-11-06T17:41:36;10.65;;;6.50;;
25649;SDS011;13505;45.196;5.696;2022-11-06T17:46:27;9.30;;;5.57;;
25649;SDS011;13505;45.196;5.696;2022-11-06T17:51:19;13.93;;;6.40;;
25649;SDS011;13505;45.196;5.696;2022-11-06T17:56:29;12.30;;;7.27;;
25649;SDS011;13505;45.196;5.696;2022-11-06T18:01:19;10.23;;;6.07;;
25649;SDS011;13505;45.196;5.696;2022-11-06T18:06:10;12.50;;;7.10;;
25649;SDS011;13505;45.196;5.696;2022-11-06T18:11:02;14.30;;;7.38;;
25649;SDS011;13505;45.196;5.696;2022-11-06T18:15:53;12.73;;;7.35;;
25649;SDS011;13505;45.196;5.696;2022-11-06T18:20:44;13.82;;;7.38;;
25649;SDS011;13505;45.196;5.696;2022-11-06T18:25:39;16.30;;;9.43;;
25649;SDS011;13505;45.196;5.696;2022-11-06T18:30:29;19.10;;;10.00;;
25649;SDS011;13505;45.196;5.696;2022-11-06T18:35:19;14.98;;;8.63;;
25649;SDS011;13505;45.196;5.696;2022-11-06T18:40:10;16.23;;;8.13;;
25649;SDS011;13505;45.196;5.696;2022-11-06T18:45:01;16.95;;;9.85;;
25649;SDS011;13505;45.196;5.696;2022-11-06T18:49:51;16.58;;;9.65;;
25649;SDS011;13505;45.196;5.696;2022-11-06T18:54:41;15.88;;;8.68;;
25649;SDS011;13505;45.196;5.696;2022-11-06T18:59:32;20.95;;;10.48;;
25649;SDS011;13505;45.196;5.696;2022-11-06T19:04:22;17.77;;;8.77;;
25649;SDS011;13505;45.196;5.696;2022-11-06T19:09:12;16.50;;;9.37;;
25649;SDS011;13505;45.196;5.696;2022-11-06T19:14:03;18.60;;;9.90;;
25649;SDS011;13505;45.196;5.696;2022-11-06T19:18:53;14.67;;;9.43;;
25649;SDS011;13505;45.196;5.696;2022-11-06T19:23:43;16.20;;;9.80;;
25649;SDS011;13505;45.196;5.696;2022-11-06T19:28:34;23.02;;;10.65;;
25649;SDS011;13505;45.196;5.696;2022-11-06T19:33:24;16.53;;;10.10;;
25649;SDS011;13505;45.196;5.696;2022-11-06T19:38:14;16.85;;;10.88;;
25649;SDS011;13505;45.196;5.696;2022-11-06T19:43:05;20.13;;;9.95;;
25649;SDS011;13505;45.196;5.696;2022-11-06T19:47:58;22.70;;;11.45;;
25649;SDS011;13505;45.196;5.696;2022-11-06T19:52:48;22.23;;;12.85;;
25649;SDS011;13505;45.196;5.696;2022-11-06T19:57:38;21.77;;;13.27;;
25649;SDS011;13505;45.196;5.696;2022-11-06T20:02:29;25.45;;;15.30;;
25649;SDS011;13505;45.196;5.696;2022-11-06T20:07:19;27.40;;;16.30;;
25649;SDS011;13505;45.196;5.696;2022-11-06T20:12:11;28.42;;;16.33;;
25649;SDS011;13505;45.196;5.696;2022-11-06T20:17:02;25.33;;;15.23;;
25649;SDS011;13505;45.196;5.696;2022-11-06T20:21:53;30.45;;;18.48;;
25649;SDS011;13505;45.196;5.696;2022-11-06T20:26:43;30.08;;;17.77;;
25649;SDS011;13505;45.196;5.696;2022-11-06T20:31:34;31.95;;;17.08;;
25649;SDS011;13505;45.196;5.696;2022-11-06T20:36:26;26.42;;;15.93;;
25649;SDS011;13505;45.196;5.696;2022-11-06T20:41:18;25.48;;;13.82;;
25649;SDS011;13505;45.196;5.696;2022-11-06T20:46:09;21.85;;;11.70;;
25649;SDS011;13505;45.196;5.696;2022-11-06T20:51:02;21.73;;;11.93;;
25649;SDS011;13505;45.196;5.696;2022-11-06T20:55:58;22.88;;;11.98;;
25649;SDS011;13505;45.196;5.696;2022-11-06T21:00:50;18.23;;;11.30;;
25649;SDS011;13505;45.196;5.696;2022-11-06T21:05:40;16.95;;;10.85;;
25649;SDS011;13505;45.196;5.696;2022-11-06T21:10:31;23.60;;;11.97;;
25649;SDS011;13505;45.196;5.696;2022-11-06T21:15:21;17.48;;;11.57;;
25649;SDS011;13505;45.196;5.696;2022-11-06T21:20:12;19.92;;;11.40;;
25649;SDS011;13505;45.196;5.696;2022-11-06T21:25:03;20.17;;;10.48;;
25649;SDS011;13505;45.196;5.696;2022-11-06T21:29:54;16.13;;;10.32;;
25649;SDS011;13505;45.196;5.696;2022-11-06T21:34:44;17.40;;;10.05;;
25649;SDS011;13505;45.196;5.696;2022-11-06T21:39:35;18.52;;;10.98;;
25649;SDS011;13505;45.196;5.696;2022-11-06T21:44:25;19.55;;;11.52;;
25649;SDS011;13505;45.196;5.696;2022-11-06T21:49:15;20.08;;;9.32;;
25649;SDS011;13505;45.196;5.696;2022-11-06T21:54:06;19.02;;;11.13;;
25649;SDS011;13505;45.196;5.696;2022-11-06T21:59:17;23.83;;;11.85;;
25649;SDS011;13505;45.196;5.696;2022-11-06T22:04:09;19.02;;;11.07;;
25649;SDS011;13505;45.196;5.696;2022-11-06T22:09:00;20.88;;;11.73;;
25649;SDS011;13505;45.196;5.696;2022-11-06T22:13:52;21.63;;;11.57;;
25649;SDS011;13505;45.196;5.696;2022-11-06T22:18:44;16.90;;;10.55;;
25649;SDS011;13505;45.196;5.696;2022-11-06T22:23:34;17.10;;;10.88;;
25649;SDS011;13505;45.196;5.696;2022-11-06T22:28:25;16.58;;;10.13;;
25649;SDS011;13505;45.196;5.696;2022-11-06T22:33:15;21.20;;;11.25;;
25649;SDS011;13505;45.196;5.696;2022-11-06T22:38:06;22.47;;;10.77;;
25649;SDS011;13505;45.196;5.696;2022-11-06T22:42:59;20.15;;;10.43;;
25649;SDS011;13505;45.196;5.696;2022-11-06T22:47:49;15.43;;;9.70;;
25649;SDS011;13505;45.196;5.696;2022-11-06T22:52:39;15.07;;;9.63;;
25649;SDS011;13505;45.196;5.696;2022-11-06T22:57:30;17.02;;;9.60;;
